createdAt,value
2017-12-17T00:01:19.439Z,23.93
2017-12-17T00:03:47.185Z,17.50
2017-12-17T00:06:14.525Z,16.13
2017-12-17T00:08:42.170Z,18.30
2017-12-17T00:11:09.856Z,19.23
2017-12-17T00:13:37.535Z,18.70
2017-12-17T00:16:04.867Z,17.77
2017-12-17T00:18:32.663Z,17.70
2017-12-17T00:21:00.363Z,16.97
2017-12-17T00:23:27.686Z,17.60
2017-12-17T00:25:55.051Z,18.47
2017-12-17T00:28:22.722Z,16.70
2017-12-17T00:30:50.114Z,18.20
2017-12-17T00:33:17.477Z,16.97
2017-12-17T00:35:45.098Z,14.30
2017-12-17T00:38:12.450Z,15.43
2017-12-17T00:40:39.835Z,16.33
2017-12-17T00:43:07.144Z,14.67
2017-12-17T00:45:34.831Z,14.70
2017-12-17T00:48:02.199Z,14.10
2017-12-17T00:50:29.838Z,15.30
2017-12-17T00:52:57.155Z,14.20
2017-12-17T00:55:24.503Z,14.67
2017-12-17T00:57:51.874Z,16.13
2017-12-17T01:00:19.640Z,15.43
2017-12-17T01:02:47.338Z,12.90
2017-12-17T01:05:14.683Z,14.80
2017-12-17T01:07:42.007Z,13.03
2017-12-17T01:10:09.724Z,13.73
2017-12-17T01:12:37.147Z,14.90
2017-12-17T01:15:04.826Z,11.30
2017-12-17T01:17:32.127Z,14.10
2017-12-17T01:19:59.462Z,15.30
2017-12-17T01:22:26.884Z,12.10
2017-12-17T01:24:54.205Z,11.70
2017-12-17T01:27:21.583Z,18.40
2017-12-17T01:29:49.249Z,15.70
2017-12-17T01:32:16.910Z,12.10
2017-12-17T01:34:44.311Z,12.20
2017-12-17T01:37:11.615Z,11.97
2017-12-17T01:39:39.295Z,14.63
2017-12-17T01:42:06.651Z,15.73
2017-12-17T01:44:33.962Z,16.03
2017-12-17T01:47:01.677Z,14.03
2017-12-17T01:49:29.014Z,14.53
2017-12-17T01:51:56.333Z,13.13
2017-12-17T01:54:24.034Z,13.00
2017-12-17T01:56:51.397Z,13.83
2017-12-17T01:59:18.733Z,13.30
2017-12-17T02:01:46.390Z,11.93
2017-12-17T02:04:14.135Z,12.17
2017-12-17T02:06:41.838Z,12.77
2017-12-17T02:09:09.483Z,12.70
2017-12-17T02:11:36.834Z,12.80
2017-12-17T02:14:04.283Z,11.77
2017-12-17T02:16:31.955Z,12.90
2017-12-17T02:18:59.334Z,13.37
2017-12-17T02:21:26.650Z,19.97
2017-12-17T02:23:54.281Z,13.30
2017-12-17T02:26:21.639Z,14.43
2017-12-17T02:28:49.511Z,10.90
2017-12-17T02:31:16.824Z,14.10
2017-12-17T02:33:44.486Z,12.73
2017-12-17T02:36:12.132Z,10.40
2017-12-17T02:38:39.435Z,14.20
2017-12-17T02:41:07.283Z,14.37
2017-12-17T02:43:34.907Z,13.37
2017-12-17T02:46:02.223Z,14.90
2017-12-17T02:48:29.978Z,12.07
2017-12-17T02:50:57.307Z,12.43
2017-12-17T02:53:24.855Z,15.07
2017-12-17T02:55:52.554Z,12.03
2017-12-17T02:58:19.890Z,16.57
2017-12-17T03:00:47.516Z,15.73
2017-12-17T03:03:14.867Z,14.83
2017-12-17T03:05:42.175Z,17.93
2017-12-17T03:08:09.474Z,10.90
2017-12-17T03:10:36.822Z,12.00
2017-12-17T03:13:04.150Z,10.83
2017-12-17T03:15:31.855Z,10.97
2017-12-17T03:17:59.222Z,11.30
2017-12-17T03:20:26.858Z,15.30
2017-12-17T03:22:54.638Z,11.63
2017-12-17T03:25:22.009Z,10.30
2017-12-17T03:27:49.675Z,11.17
2017-12-17T03:30:17.332Z,13.10
2017-12-17T03:32:45.010Z,15.83
2017-12-17T03:35:12.643Z,13.50
2017-12-17T03:37:39.971Z,12.30
2017-12-17T03:40:07.434Z,15.63
2017-12-17T03:42:35.156Z,10.90
2017-12-17T03:45:02.470Z,13.03
2017-12-17T03:47:29.970Z,13.33
2017-12-17T03:49:57.279Z,12.90
2017-12-17T03:52:24.594Z,13.20
2017-12-17T03:54:52.325Z,16.10
2017-12-17T03:57:19.942Z,15.13
2017-12-17T03:59:47.252Z,15.47
2017-12-17T04:02:14.589Z,14.77
2017-12-17T04:04:42.215Z,15.30
2017-12-17T04:07:09.524Z,17.47
2017-12-17T04:09:36.850Z,21.63
2017-12-17T04:12:04.170Z,17.60
2017-12-17T04:14:31.482Z,16.60
2017-12-17T04:16:58.854Z,17.67
2017-12-17T04:19:26.170Z,15.90
2017-12-17T04:21:53.814Z,19.30
2017-12-17T04:24:21.159Z,19.17
2017-12-17T04:26:48.470Z,14.80
2017-12-17T04:29:15.804Z,14.53
2017-12-17T04:31:43.551Z,18.27
2017-12-17T04:34:11.189Z,19.30
2017-12-17T04:36:38.502Z,13.57
2017-12-17T04:39:06.224Z,10.57
2017-12-17T04:41:33.539Z,14.73
2017-12-17T04:44:00.934Z,14.40
2017-12-17T04:46:28.897Z,10.23
2017-12-17T04:48:56.538Z,11.67
2017-12-17T04:51:24.851Z,8.20
2017-12-17T04:53:52.518Z,10.37
2017-12-17T04:56:20.154Z,8.20
2017-12-17T04:58:47.465Z,9.27
2017-12-17T05:01:15.238Z,9.83
2017-12-17T05:03:42.927Z,12.30
2017-12-17T05:06:10.299Z,10.00
2017-12-17T05:08:37.977Z,11.33
2017-12-17T05:11:05.610Z,15.00
2017-12-17T05:13:33.380Z,16.13
2017-12-17T05:16:01.079Z,11.40
2017-12-17T05:18:28.382Z,14.13
2017-12-17T05:20:55.732Z,13.00
2017-12-17T05:23:23.463Z,11.43
2017-12-17T05:25:51.158Z,17.17
2017-12-17T05:28:18.488Z,14.57
2017-12-17T05:30:46.151Z,15.97
2017-12-17T05:33:13.658Z,14.57
2017-12-17T05:35:41.308Z,14.00
2017-12-17T05:38:08.994Z,15.47
2017-12-17T05:40:36.617Z,13.00
2017-12-17T05:43:03.970Z,13.13
2017-12-17T05:45:31.699Z,13.60
2017-12-17T05:47:59.017Z,12.93
2017-12-17T05:50:26.754Z,13.23
2017-12-17T05:52:54.114Z,14.97
2017-12-17T05:55:21.442Z,15.30
2017-12-17T05:57:49.178Z,17.87
2017-12-17T06:00:16.538Z,18.60
2017-12-17T06:02:43.879Z,17.40
2017-12-17T06:05:11.342Z,18.27
2017-12-17T06:07:38.987Z,22.33
2017-12-17T06:10:06.353Z,15.60
2017-12-17T06:12:34.786Z,20.10
2017-12-17T06:15:02.585Z,16.57
2017-12-17T06:17:29.894Z,15.23
2017-12-17T06:19:57.399Z,14.90
2017-12-17T06:22:25.066Z,17.50
2017-12-17T06:24:52.685Z,18.50
2017-12-17T06:27:20.438Z,20.50
2017-12-17T06:29:48.201Z,19.00
2017-12-17T06:32:16.049Z,21.03
2017-12-17T06:34:43.371Z,18.40
2017-12-17T06:37:10.714Z,19.93
2017-12-17T06:39:38.346Z,19.33
2017-12-17T06:42:05.695Z,14.43
2017-12-17T06:44:33.362Z,20.83
2017-12-17T06:47:00.739Z,19.53
2017-12-17T06:49:28.095Z,20.30
2017-12-17T06:51:55.447Z,17.83
2017-12-17T06:54:22.921Z,19.80
2017-12-17T06:56:50.607Z,22.03
2017-12-17T06:59:17.918Z,18.40
2017-12-17T07:01:45.563Z,20.90
2017-12-17T07:04:13.182Z,18.97
2017-12-17T07:06:40.517Z,19.20
2017-12-17T07:09:08.177Z,17.47
2017-12-17T07:11:36.134Z,16.47
2017-12-17T07:14:03.775Z,18.80
2017-12-17T07:16:31.086Z,23.53
2017-12-17T07:18:58.470Z,17.27
2017-12-17T07:21:26.143Z,19.80
2017-12-17T07:23:53.802Z,18.60
2017-12-17T07:26:22.172Z,18.77
2017-12-17T07:28:49.482Z,19.10
2017-12-17T07:31:17.110Z,20.80
2017-12-17T07:33:44.463Z,21.67
2017-12-17T07:36:11.846Z,20.20
2017-12-17T07:38:39.534Z,13.90
2017-12-17T07:41:07.537Z,17.20
2017-12-17T07:43:35.223Z,16.07
2017-12-17T07:46:02.860Z,19.47
2017-12-17T07:48:30.555Z,13.90
2017-12-17T07:50:58.299Z,15.03
2017-12-17T07:53:25.624Z,17.50
2017-12-17T07:55:53.099Z,16.87
2017-12-17T07:58:20.435Z,22.13
2017-12-17T08:00:47.774Z,19.80
2017-12-17T08:03:15.241Z,17.93
2017-12-17T08:05:42.923Z,19.10
2017-12-17T08:08:10.583Z,15.27
2017-12-17T08:10:37.940Z,15.63
2017-12-17T08:13:05.611Z,18.80
2017-12-17T08:15:32.978Z,21.53
2017-12-17T08:18:00.669Z,17.10
2017-12-17T08:20:28.278Z,18.07
2017-12-17T08:22:55.994Z,17.90
2017-12-17T08:25:23.367Z,24.30
2017-12-17T08:27:50.840Z,16.13
2017-12-17T08:30:18.153Z,17.77
2017-12-17T08:32:45.771Z,15.57
2017-12-17T08:35:13.495Z,18.23
2017-12-17T08:37:41.237Z,20.70
2017-12-17T08:40:08.542Z,17.77
2017-12-17T08:42:35.907Z,17.87
2017-12-17T08:45:06.309Z,16.67
2017-12-17T08:47:33.634Z,18.90
2017-12-17T08:50:01.091Z,19.37
2017-12-17T08:52:28.410Z,19.23
2017-12-17T08:54:55.747Z,19.10
2017-12-17T08:57:23.101Z,23.03
2017-12-17T08:59:50.442Z,22.43
2017-12-17T09:02:17.759Z,19.67
2017-12-17T09:04:45.121Z,23.33
2017-12-17T09:07:12.435Z,24.40
2017-12-17T09:09:39.737Z,20.30
2017-12-17T09:12:07.122Z,26.17
2017-12-17T09:14:34.444Z,27.10
2017-12-17T09:17:01.775Z,23.53
2017-12-17T09:19:29.326Z,25.20
2017-12-17T09:21:57.071Z,23.57
2017-12-17T09:24:24.399Z,27.30
2017-12-17T09:26:51.798Z,19.20
2017-12-17T09:29:19.122Z,20.03
2017-12-17T09:31:46.477Z,22.93
2017-12-17T09:34:14.095Z,20.73
2017-12-17T09:36:41.498Z,20.57
2017-12-17T09:39:08.818Z,21.40
2017-12-17T09:41:36.174Z,28.80
2017-12-17T09:44:03.512Z,20.53
2017-12-17T09:46:31.113Z,20.70
2017-12-17T09:48:59.222Z,21.63
2017-12-17T09:51:26.553Z,21.57
2017-12-17T09:53:53.905Z,18.70
2017-12-17T09:56:21.259Z,21.60
2017-12-17T09:58:48.579Z,20.97
2017-12-17T10:01:17.847Z,16.00
2017-12-17T10:03:45.227Z,21.53
2017-12-17T10:06:12.571Z,22.37
2017-12-17T10:08:39.888Z,21.60
2017-12-17T10:11:07.419Z,19.23
2017-12-17T10:13:34.775Z,19.03
2017-12-17T10:16:02.092Z,17.83
2017-12-17T10:18:29.499Z,24.10
2017-12-17T10:20:56.802Z,20.53
2017-12-17T10:23:24.407Z,24.07
2017-12-17T10:25:51.803Z,25.20
2017-12-17T10:28:19.423Z,22.20
2017-12-17T10:30:46.759Z,21.60
2017-12-17T10:33:14.117Z,26.07
2017-12-17T10:35:41.621Z,23.87
2017-12-17T10:38:09.014Z,21.77
2017-12-17T10:40:36.362Z,23.30
2017-12-17T10:43:03.690Z,28.40
2017-12-17T10:45:31.378Z,22.70
2017-12-17T10:47:58.743Z,24.03
2017-12-17T10:50:26.143Z,25.90
2017-12-17T10:52:53.569Z,23.67
2017-12-17T10:55:20.926Z,21.97
2017-12-17T10:57:48.598Z,22.60
2017-12-17T11:00:15.969Z,27.23
2017-12-17T11:02:43.744Z,22.60
2017-12-17T11:05:12.259Z,20.60
2017-12-17T11:07:39.626Z,26.07
2017-12-17T11:10:07.005Z,20.60
2017-12-17T11:12:34.381Z,22.13
2017-12-17T11:15:03.134Z,23.17
2017-12-17T11:17:30.554Z,22.67
2017-12-17T11:19:58.198Z,20.03
2017-12-17T11:22:25.878Z,20.17
2017-12-17T11:24:53.503Z,19.40
2017-12-17T11:27:20.854Z,19.23
2017-12-17T11:29:48.244Z,21.03
2017-12-17T11:32:15.867Z,16.37
2017-12-17T11:34:43.183Z,23.07
2017-12-17T11:37:10.551Z,25.50
2017-12-17T11:39:38.247Z,19.77
2017-12-17T11:42:05.767Z,18.43
2017-12-17T11:44:33.098Z,18.23
2017-12-17T11:47:00.415Z,21.17
2017-12-17T11:49:27.822Z,18.83
2017-12-17T11:51:55.128Z,19.53
2017-12-17T11:54:22.562Z,17.00
2017-12-17T11:56:49.921Z,15.27
2017-12-17T11:59:17.486Z,18.50
2017-12-17T12:01:44.803Z,17.03
2017-12-17T12:04:12.160Z,15.23
2017-12-17T12:06:39.482Z,16.50
2017-12-17T12:09:06.807Z,13.77
2017-12-17T12:11:34.162Z,15.57
2017-12-17T12:14:01.483Z,15.33
2017-12-17T12:16:28.803Z,12.50
2017-12-17T12:18:56.611Z,23.70
2017-12-17T12:21:23.982Z,19.30
2017-12-17T12:23:51.295Z,13.43
2017-12-17T12:26:18.650Z,18.97
2017-12-17T12:28:46.019Z,18.30
2017-12-17T12:31:13.617Z,18.50
2017-12-17T12:33:41.003Z,21.60
2017-12-17T12:36:08.324Z,17.67
2017-12-17T12:38:35.627Z,16.60
2017-12-17T12:41:03.109Z,15.60
2017-12-17T12:43:30.435Z,18.50
2017-12-17T12:45:57.774Z,21.00
2017-12-17T12:48:25.172Z,15.00
2017-12-17T12:50:52.510Z,15.37
2017-12-17T12:53:19.820Z,16.73
2017-12-17T12:55:47.198Z,17.93
2017-12-17T12:58:14.521Z,16.37
2017-12-17T13:00:41.887Z,14.33
2017-12-17T13:03:09.279Z,12.97
2017-12-17T13:05:36.644Z,13.90
2017-12-17T13:08:03.956Z,16.37
2017-12-17T13:10:31.294Z,15.47
2017-12-17T13:12:58.630Z,15.77
2017-12-17T13:15:25.986Z,16.17
2017-12-17T13:17:53.344Z,17.70
2017-12-17T13:20:20.679Z,15.20
2017-12-17T13:22:48.101Z,13.60
2017-12-17T13:25:15.498Z,13.47
2017-12-17T13:27:42.882Z,16.90
2017-12-17T13:30:10.226Z,15.33
2017-12-17T13:32:37.578Z,22.50
2017-12-17T13:35:04.932Z,18.83
2017-12-17T13:37:32.247Z,22.33
2017-12-17T13:39:59.618Z,17.70
2017-12-17T13:42:26.936Z,19.47
2017-12-17T13:44:54.278Z,19.13
2017-12-17T13:47:21.735Z,16.80
2017-12-17T13:49:49.078Z,18.40
2017-12-17T13:52:16.430Z,16.47
2017-12-17T13:54:43.810Z,21.00
2017-12-17T13:57:11.135Z,16.83
2017-12-17T13:59:38.459Z,18.70
2017-12-17T14:02:05.810Z,13.80
2017-12-17T14:04:33.118Z,13.40
2017-12-17T14:07:00.469Z,17.07
2017-12-17T14:09:27.826Z,10.20
2017-12-17T14:11:55.351Z,12.80
2017-12-17T14:14:22.674Z,9.10
2017-12-17T14:16:50.067Z,9.00
2017-12-17T14:19:17.365Z,8.13
2017-12-17T14:21:44.736Z,11.70
2017-12-17T14:24:13.124Z,7.30
2017-12-17T14:26:40.426Z,8.43
2017-12-17T14:29:07.746Z,9.80
2017-12-17T14:31:35.114Z,7.57
2017-12-17T14:34:02.420Z,7.50
2017-12-17T14:36:29.841Z,10.50
2017-12-17T14:38:57.963Z,7.23
2017-12-17T14:41:25.280Z,7.07
2017-12-17T14:43:52.611Z,7.07
2017-12-17T14:46:20.063Z,6.47
2017-12-17T14:48:47.389Z,7.30
2017-12-17T14:51:14.782Z,7.40
2017-12-17T14:53:42.187Z,9.60
2017-12-17T14:56:09.784Z,9.10
2017-12-17T14:58:37.111Z,6.60
2017-12-17T15:01:04.478Z,7.23
2017-12-17T15:03:31.854Z,6.60
2017-12-17T15:05:59.217Z,5.83
2017-12-17T15:08:26.699Z,7.50
2017-12-17T15:10:54.055Z,7.13
2017-12-17T15:13:21.359Z,6.53
2017-12-17T15:15:48.727Z,6.90
2017-12-17T15:18:16.038Z,8.33
2017-12-17T15:20:43.341Z,7.47
2017-12-17T15:23:10.865Z,7.90
2017-12-17T15:25:38.162Z,11.10
2017-12-17T15:28:05.571Z,9.30
2017-12-17T15:30:32.932Z,11.27
2017-12-17T15:33:00.240Z,7.13
2017-12-17T15:35:27.755Z,9.17
2017-12-17T15:37:55.108Z,6.67
2017-12-17T15:40:22.676Z,9.23
2017-12-17T15:42:49.994Z,7.93
2017-12-17T15:45:17.465Z,24.20
2017-12-17T15:47:44.803Z,10.63
2017-12-17T15:50:12.121Z,9.57
2017-12-17T15:52:39.474Z,9.13
2017-12-17T15:55:06.810Z,10.80
2017-12-17T15:57:35.139Z,8.50
2017-12-17T16:00:02.512Z,6.97
2017-12-17T16:02:29.834Z,10.00
2017-12-17T16:04:57.387Z,7.87
2017-12-17T16:07:24.740Z,8.60
2017-12-17T16:09:52.075Z,11.60
2017-12-17T16:12:19.598Z,8.97
2017-12-17T16:14:47.268Z,11.07
2017-12-17T16:17:14.767Z,10.00
2017-12-17T16:19:42.074Z,10.17
2017-12-17T16:22:09.714Z,10.73
2017-12-17T16:24:37.110Z,9.97
2017-12-17T16:27:05.409Z,9.93
2017-12-17T16:29:32.795Z,10.50
2017-12-17T16:32:00.194Z,10.13
2017-12-17T16:34:27.519Z,12.20
2017-12-17T16:36:54.919Z,12.13
2017-12-17T16:39:22.255Z,13.13
2017-12-17T16:41:49.623Z,15.20
2017-12-17T16:44:16.976Z,16.00
2017-12-17T16:46:44.368Z,13.40
2017-12-17T16:49:11.711Z,14.87
2017-12-17T16:51:39.178Z,16.50
2017-12-17T16:54:06.688Z,11.67
2017-12-17T16:56:34.074Z,13.47
2017-12-17T16:59:01.382Z,14.77
2017-12-17T17:01:28.755Z,10.43
2017-12-17T17:03:56.121Z,7.90
2017-12-17T17:06:23.454Z,6.33
2017-12-17T17:08:50.770Z,8.20
2017-12-17T17:11:19.192Z,9.37
2017-12-17T17:13:46.559Z,14.97
2017-12-17T17:16:14.891Z,15.80
2017-12-17T17:18:42.263Z,16.63
2017-12-17T17:21:09.603Z,14.90
2017-12-17T17:23:36.949Z,14.73
2017-12-17T17:26:04.478Z,16.13
2017-12-17T17:28:31.816Z,16.73
2017-12-17T17:30:59.170Z,27.30
2017-12-17T17:33:26.563Z,21.57
2017-12-17T17:35:53.884Z,16.90
2017-12-17T17:38:21.235Z,36.47
2017-12-17T17:40:48.618Z,13.63
2017-12-17T17:43:15.979Z,8.00
2017-12-17T17:45:43.290Z,16.77
2017-12-17T17:48:10.715Z,11.53
2017-12-17T17:50:38.024Z,6.63
2017-12-17T17:53:05.379Z,8.30
2017-12-17T17:55:32.773Z,7.90
2017-12-17T17:58:00.071Z,9.67
2017-12-17T18:00:27.426Z,10.13
2017-12-17T18:02:54.819Z,10.53
2017-12-17T18:05:22.125Z,11.40
2017-12-17T18:07:49.442Z,12.33
2017-12-17T18:10:16.810Z,14.10
2017-12-17T18:12:44.142Z,11.63
2017-12-17T18:15:11.471Z,12.13
2017-12-17T18:17:38.820Z,9.70
2017-12-17T18:20:06.254Z,10.90
2017-12-17T18:22:33.650Z,11.53
2017-12-17T18:25:01.159Z,11.60
2017-12-17T18:27:28.499Z,11.63
2017-12-17T18:29:56.047Z,12.27
2017-12-17T18:32:23.362Z,11.87
2017-12-17T18:34:50.696Z,8.50
2017-12-17T18:37:18.090Z,8.93
2017-12-17T18:39:45.430Z,9.93
2017-12-17T18:42:12.950Z,10.67
2017-12-17T18:44:40.339Z,9.30
2017-12-17T18:47:07.671Z,12.63
2017-12-17T18:49:35.018Z,11.60
2017-12-17T18:52:02.351Z,11.00
2017-12-17T18:54:29.686Z,11.47
2017-12-17T18:56:57.039Z,13.13
2017-12-17T18:59:24.337Z,13.73
2017-12-17T19:01:51.765Z,13.90
2017-12-17T19:04:19.082Z,13.37
2017-12-17T19:06:46.390Z,15.00
2017-12-17T19:09:13.738Z,14.50
2017-12-17T19:11:41.062Z,15.77
2017-12-17T19:14:08.758Z,9.13
2017-12-17T19:16:36.454Z,13.90
2017-12-17T19:19:04.102Z,16.13
2017-12-17T19:21:31.532Z,10.87
2017-12-17T19:23:59.247Z,12.57
2017-12-17T19:26:26.952Z,10.53
2017-12-17T19:28:54.659Z,10.20
2017-12-17T19:31:22.387Z,10.70
2017-12-17T19:33:50.082Z,13.27
2017-12-17T19:36:17.722Z,9.10
2017-12-17T19:38:45.031Z,9.80
2017-12-17T19:41:12.424Z,9.70
2017-12-17T19:43:39.811Z,11.53
2017-12-17T19:46:07.439Z,10.60
2017-12-17T19:48:35.138Z,13.00
2017-12-17T19:51:02.770Z,9.10
2017-12-17T19:53:30.447Z,10.47
2017-12-17T19:55:58.106Z,9.60
2017-12-17T19:58:25.422Z,9.87
2017-12-17T20:00:52.877Z,10.13
2017-12-17T20:03:20.567Z,9.63
2017-12-17T20:05:47.908Z,8.37
2017-12-17T20:08:15.619Z,9.47
2017-12-17T20:10:43.246Z,10.40
2017-12-17T20:13:10.551Z,8.87
2017-12-17T20:15:38.391Z,15.03
2017-12-17T20:18:06.067Z,9.47
2017-12-17T20:20:33.713Z,8.80
2017-12-17T20:23:01.111Z,10.97
2017-12-17T20:25:28.991Z,10.97
2017-12-17T20:27:56.347Z,11.33
2017-12-17T20:30:24.023Z,10.67
2017-12-17T20:32:51.391Z,10.97
2017-12-17T20:35:19.062Z,9.63
2017-12-17T20:37:46.603Z,11.23
2017-12-17T20:40:13.990Z,12.63
2017-12-17T20:42:41.644Z,9.13
2017-12-17T20:45:09.348Z,11.10
2017-12-17T20:47:36.798Z,10.63
2017-12-17T20:50:04.505Z,13.10
2017-12-17T20:52:31.872Z,12.67
2017-12-17T20:54:59.535Z,12.13
2017-12-17T20:57:26.932Z,13.40
2017-12-17T20:59:54.363Z,12.50
2017-12-17T21:02:21.900Z,11.63
2017-12-17T21:04:49.403Z,15.30
2017-12-17T21:07:17.494Z,14.20
2017-12-17T21:09:45.035Z,14.60
2017-12-17T21:12:12.416Z,16.13
2017-12-17T21:14:39.734Z,14.07
2017-12-17T21:17:07.067Z,15.43
2017-12-17T21:19:34.421Z,14.70
2017-12-17T21:22:02.812Z,12.50
2017-12-17T21:24:30.132Z,14.27
2017-12-17T21:26:57.492Z,13.47
2017-12-17T21:29:24.833Z,15.20
2017-12-17T21:31:52.154Z,14.00
2017-12-17T21:34:19.530Z,29.93
2017-12-17T21:36:46.915Z,70.80
2017-12-17T21:39:14.261Z,51.80
2017-12-17T21:41:41.698Z,16.47
2017-12-17T21:44:09.019Z,13.27
2017-12-17T21:46:36.466Z,14.60
2017-12-17T21:49:04.779Z,17.47
2017-12-17T21:51:32.351Z,17.33
2017-12-17T21:53:59.764Z,27.50
2017-12-17T21:56:27.108Z,19.50
2017-12-17T21:58:54.448Z,19.90
2017-12-17T22:01:21.908Z,19.47
2017-12-17T22:03:49.365Z,30.57
2017-12-17T22:06:16.731Z,30.13
2017-12-17T22:08:44.131Z,33.63
2017-12-17T22:11:11.450Z,20.00
2017-12-17T22:13:38.766Z,14.87
2017-12-17T22:16:06.297Z,26.87
2017-12-17T22:18:33.642Z,20.40
2017-12-17T22:21:00.980Z,23.40
2017-12-17T22:23:28.303Z,21.30
2017-12-17T22:25:55.689Z,19.07
2017-12-17T22:28:23.023Z,20.50
2017-12-17T22:30:50.365Z,24.20
2017-12-17T22:33:17.815Z,23.93
2017-12-17T22:35:45.195Z,18.90
2017-12-17T22:38:12.609Z,19.07
2017-12-17T22:40:39.918Z,20.47
2017-12-17T22:43:07.287Z,20.73
2017-12-17T22:45:34.754Z,10.70
2017-12-17T22:48:02.451Z,16.57
2017-12-17T22:50:30.177Z,16.10
2017-12-17T22:52:57.886Z,16.03
2017-12-17T22:55:25.543Z,19.13
2017-12-17T22:57:52.876Z,24.40
2017-12-17T23:00:20.237Z,18.13
2017-12-17T23:02:47.687Z,15.57
2017-12-17T23:05:15.119Z,16.90
2017-12-17T23:07:42.587Z,19.97
2017-12-17T23:10:10.330Z,18.17
2017-12-17T23:12:37.683Z,17.70
2017-12-17T23:15:05.111Z,17.80
2017-12-17T23:17:32.827Z,19.47
2017-12-17T23:20:00.220Z,20.63
2017-12-17T23:22:27.873Z,15.50
2017-12-17T23:24:55.548Z,19.63
2017-12-17T23:27:23.119Z,13.87
2017-12-17T23:29:50.503Z,16.17
2017-12-17T23:32:18.227Z,16.60
2017-12-17T23:34:45.946Z,15.83
2017-12-17T23:37:13.267Z,17.43
2017-12-17T23:39:40.630Z,14.40
2017-12-17T23:42:08.063Z,14.93
2017-12-17T23:44:35.677Z,13.23
2017-12-17T23:47:03.835Z,13.83
2017-12-17T23:49:31.234Z,18.17
2017-12-17T23:51:58.558Z,13.70
2017-12-17T23:54:26.218Z,14.80
2017-12-17T23:56:54.042Z,13.67
2017-12-17T23:59:21.362Z,13.10
